Time;durP1;ratioP1;P1;durP2;ratioP2;P2;SDS_P1;SDS_P2;PMS_P1;PMS_P2;Temp;Humidity;BMP_temperature;BMP_pressure;BME280_temperature;BME280_humidity;BME280_pressure;Samples;Min_cycle;Max_cycle;Signal;HPM_P1;HPM_P2
2021/10/09 00:02:19;;;;;;;18.30;9.60;;;;;;;2.65;68.23;98126.50;115457;1192;37907;-80
2021/10/09 00:04:50;;;;;;;17.60;9.70;;;;;;;2.63;68.67;98126.64;115548;1199;29539;-80
2021/10/09 00:07:20;;;;;;;14.70;8.60;;;;;;;2.76;69.04;98128.70;115519;1199;33374;-81
2021/10/09 00:09:54;;;;;;;14.80;8.20;;;;;;;2.81;69.01;98126.48;115540;1199;33307;-81
2021/10/09 00:12:26;;;;;;;14.80;7.80;;;;;;;2.70;68.70;98120.45;115573;1199;28594;-81
2021/10/09 00:14:58;;;;;;;16.00;9.20;;;;;;;2.47;68.85;98116.57;115451;1199;37909;-80
2021/10/09 00:17:29;;;;;;;16.90;8.60;;;;;;;2.24;69.28;98111.06;115325;1199;74632;-81
2021/10/09 00:20:00;;;;;;;17.60;9.70;;;;;;;2.15;69.75;98110.91;115462;1199;33286;-82
2021/10/09 00:22:31;;;;;;;17.10;10.10;;;;;;;2.12;69.81;98111.29;115319;1199;33766;-81
2021/10/09 00:25:01;;;;;;;18.30;9.30;;;;;;;2.13;70.11;98105.23;115463;1199;35284;-82
2021/10/09 00:27:33;;;;;;;18.80;9.40;;;;;;;2.17;70.00;98104.00;115515;1192;32702;-81
2021/10/09 00:30:04;;;;;;;15.70;8.80;;;;;;;2.26;70.09;98104.16;115412;1193;30057;-82
2021/10/09 00:32:35;;;;;;;15.80;8.40;;;;;;;2.41;69.97;98101.88;115392;1199;32613;-81
2021/10/09 00:35:08;;;;;;;16.40;7.90;;;;;;;2.43;69.90;98098.47;115473;1199;29289;-80
2021/10/09 00:37:39;;;;;;;15.10;8.10;;;;;;;2.38;69.97;98099.10;115581;1199;30267;-82
2021/10/09 00:40:12;;;;;;;12.90;7.90;;;;;;;2.34;69.86;98099.60;115641;1184;27265;-80
2021/10/09 00:42:42;;;;;;;15.80;7.80;;;;;;;2.31;70.19;98095.19;115522;1193;32802;-80
2021/10/09 00:45:13;;;;;;;11.70;7.00;;;;;;;2.29;70.28;98098.20;115547;1199;31120;-80
2021/10/09 00:47:44;;;;;;;14.10;6.90;;;;;;;2.29;70.22;98093.77;115527;1199;30991;-80
2021/10/09 00:50:15;;;;;;;14.20;7.60;;;;;;;2.24;70.08;98093.00;115489;1199;31407;-80
2021/10/09 00:52:48;;;;;;;11.80;7.40;;;;;;;2.29;70.15;98098.48;115435;1199;34520;-81
2021/10/09 00:55:21;;;;;;;15.80;8.30;;;;;;;2.32;70.18;98096.04;115555;1186;31676;-81
2021/10/09 00:57:55;;;;;;;14.00;7.70;;;;;;;2.24;70.16;98094.96;115542;1198;30550;-80
2021/10/09 01:00:26;;;;;;;13.70;6.90;;;;;;;2.24;70.28;98094.80;115518;1199;36713;-81
2021/10/09 01:02:58;;;;;;;13.70;7.10;;;;;;;2.20;70.28;98089.86;115419;1199;32221;-81
2021/10/09 01:05:30;;;;;;;13.20;7.20;;;;;;;1.98;70.08;98090.02;115461;1192;63404;-82
2021/10/09 01:08:01;;;;;;;11.60;6.20;;;;;;;1.89;70.36;98091.71;115521;1199;40657;-82
2021/10/09 01:10:32;;;;;;;11.30;6.30;;;;;;;1.87;70.47;98092.02;115546;1191;30707;-81
2021/10/09 01:13:04;;;;;;;12.40;7.40;;;;;;;1.89;70.66;98094.77;115438;1199;29652;-80
2021/10/09 01:15:37;;;;;;;16.00;7.50;;;;;;;1.86;70.59;98091.84;115466;1199;29394;-81
2021/10/09 01:18:13;;;;;;;15.40;8.00;;;;;;;1.91;71.03;98086.42;115607;1199;28659;-82
2021/10/09 01:20:52;;;;;;;15.70;6.80;;;;;;;2.00;71.15;98089.56;115529;1192;30369;-80
2021/10/09 01:23:23;;;;;;;10.70;6.60;;;;;;;2.01;70.75;98088.73;115563;1199;29417;-81
2021/10/09 01:25:54;;;;;;;14.00;6.80;;;;;;;1.85;70.76;98084.26;115600;1199;46537;-80
2021/10/09 01:28:27;;;;;;;12.20;6.00;;;;;;;1.63;71.04;98087.29;115545;1199;30803;-81
2021/10/09 01:30:58;;;;;;;13.80;6.10;;;;;;;1.56;71.18;98082.42;115543;1194;32493;-80
2021/10/09 01:33:29;;;;;;;12.00;6.20;;;;;;;1.59;71.46;98081.98;115557;1199;40256;-81
2021/10/09 01:36:01;;;;;;;11.20;6.60;;;;;;;1.63;71.07;98082.02;115535;1199;37931;-81
2021/10/09 01:38:35;;;;;;;11.20;6.90;;;;;;;1.64;71.39;98079.86;115513;1192;69250;-81
2021/10/09 01:41:06;;;;;;;13.20;7.40;;;;;;;1.66;71.32;98075.70;115523;1199;28576;-80
2021/10/09 01:43:37;;;;;;;15.90;8.10;;;;;;;1.66;71.37;98081.33;115218;1193;27819;-81
2021/10/09 01:46:08;;;;;;;15.80;7.90;;;;;;;1.63;71.53;98079.77;115593;1199;27866;-81
2021/10/09 01:48:40;;;;;;;13.80;7.50;;;;;;;1.59;71.65;98082.48;115577;1199;39097;-81
2021/10/09 01:51:12;;;;;;;15.80;7.40;;;;;;;1.53;72.08;98076.41;115476;1199;29671;-81
2021/10/09 01:53:45;;;;;;;13.50;7.00;;;;;;;1.42;72.15;98076.61;115556;1199;29080;-80
2021/10/09 01:56:16;;;;;;;16.20;7.60;;;;;;;1.36;72.55;98076.25;115541;1184;38906;-80
2021/10/09 01:58:47;;;;;;;14.60;7.40;;;;;;;1.33;72.66;98075.30;115494;1192;33403;-80
2021/10/09 02:01:18;;;;;;;11.60;7.20;;;;;;;1.45;72.88;98075.44;115474;1199;32952;-81
2021/10/09 02:03:49;;;;;;;12.30;7.60;;;;;;;1.56;72.44;98077.34;115400;1199;30515;-80
2021/10/09 02:06:20;;;;;;;17.20;8.50;;;;;;;1.52;72.37;98076.71;115495;1199;34693;-81
2021/10/09 02:08:51;;;;;;;14.70;7.50;;;;;;;1.51;72.27;98080.84;115495;1199;30906;-81
2021/10/09 02:11:23;;;;;;;14.70;8.90;;;;;;;1.47;72.21;98072.41;115541;1199;32603;-80
2021/10/09 02:14:00;;;;;;;12.50;7.50;;;;;;;1.54;72.23;98071.82;115533;1199;43930;-80
2021/10/09 02:24:57;;;;;;;11.10;6.90;;;;;;;1.37;72.22;98073.00;115575;1195;32020;-82
2021/10/09 02:27:28;;;;;;;14.00;7.10;;;;;;;1.34;72.33;98073.02;115567;1192;30605;-81
2021/10/09 02:29:58;;;;;;;16.40;7.40;;;;;;;1.24;72.55;98073.29;115586;1191;27862;-80
2021/10/09 02:32:29;;;;;;;14.80;8.60;;;;;;;1.18;72.61;98071.70;115608;1198;28279;-80
2021/10/09 02:35:00;;;;;;;11.70;6.60;;;;;;;1.21;72.77;98074.79;115602;1199;32233;-81
2021/10/09 02:37:30;;;;;;;14.50;7.80;;;;;;;1.19;72.53;98072.69;115537;1199;42255;-81
2021/10/09 02:40:01;;;;;;;10.50;6.90;;;;;;;1.24;72.87;98074.58;115573;1198;30801;-80
2021/10/09 02:42:32;;;;;;;12.90;7.10;;;;;;;1.32;72.81;98073.88;115530;1199;57033;-81
2021/10/09 02:45:03;;;;;;;12.80;6.90;;;;;;;1.31;72.61;98070.45;115579;1193;27877;-81
2021/10/09 02:47:34;;;;;;;16.40;7.10;;;;;;;1.21;72.57;98074.23;115577;1199;32911;-80
2021/10/09 02:50:10;;;;;;;12.20;7.30;;;;;;;1.25;72.78;98069.41;115512;1198;30913;-80
2021/10/09 02:52:41;;;;;;;11.80;7.00;;;;;;;1.42;73.32;98070.62;115624;1199;29876;-81
2021/10/09 02:55:18;;;;;;;13.80;7.70;;;;;;;1.39;72.73;98067.89;115616;1192;28361;-81
2021/10/09 02:57:49;;;;;;;12.80;7.10;;;;;;;1.36;72.70;98068.41;115536;1199;27926;-80
2021/10/09 03:00:23;;;;;;;13.80;7.40;;;;;;;1.32;72.51;98068.41;115609;1199;29452;-81
2021/10/09 03:02:54;;;;;;;12.50;7.50;;;;;;;1.18;72.60;98065.80;115587;1199;26542;-81
2021/10/09 03:05:25;;;;;;;10.60;6.30;;;;;;;1.09;72.83;98066.89;115550;1199;28379;-81
2021/10/09 03:07:55;;;;;;;10.90;6.50;;;;;;;1.06;73.07;98062.95;115545;1199;43115;-80
2021/10/09 03:10:26;;;;;;;11.20;6.40;;;;;;;1.08;73.19;98061.29;115616;1199;29323;-82
2021/10/09 03:12:57;;;;;;;11.40;6.20;;;;;;;1.05;73.18;98061.65;115619;1191;28900;-81
2021/10/09 03:15:28;;;;;;;11.40;6.90;;;;;;;1.02;73.41;98066.60;115565;1199;29902;-81
2021/10/09 03:17:59;;;;;;;13.90;7.40;;;;;;;0.96;73.50;98064.34;115572;1199;36968;-81
2021/10/09 03:20:31;;;;;;;13.90;7.70;;;;;;;0.89;73.65;98065.88;115587;1192;31629;-81
2021/10/09 03:23:02;;;;;;;13.60;6.80;;;;;;;0.89;74.02;98064.63;115534;1198;36436;-80
2021/10/09 03:25:33;;;;;;;14.50;7.20;;;;;;;0.95;73.88;98070.35;115572;1199;30252;-81
2021/10/09 03:28:04;;;;;;;13.30;7.90;;;;;;;1.00;74.16;98070.77;115439;1199;30436;-80
2021/10/09 03:30:35;;;;;;;12.10;6.10;;;;;;;1.11;74.12;98069.45;115524;1192;29579;-80
2021/10/09 03:33:05;;;;;;;12.40;6.30;;;;;;;1.08;73.57;98067.20;115320;1199;27396;-81
2021/10/09 03:35:37;;;;;;;10.00;5.70;;;;;;;1.04;73.72;98070.61;115388;1199;28590;-81
2021/10/09 03:38:08;;;;;;;13.00;6.70;;;;;;;1.08;73.37;98067.91;115507;1194;64026;-80
2021/10/09 03:40:41;;;;;;;15.90;7.90;;;;;;;1.10;73.52;98069.55;115399;1199;66176;-80
2021/10/09 03:43:16;;;;;;;13.80;8.40;;;;;;;1.16;73.59;98071.81;115345;1198;75925;-80
2021/10/09 03:45:52;;;;;;;14.00;8.30;;;;;;;1.23;73.73;98073.45;115212;1199;105932;-80
2021/10/09 03:48:43;;;;;;;13.50;7.20;;;;;;;1.18;73.31;98078.60;115339;1196;59258;-81
2021/10/09 03:54:03;;;;;;;14.30;7.40;;;;;;;0.86;73.36;98074.58;115339;1194;68530;-81
2021/10/09 03:56:34;;;;;;;14.30;7.50;;;;;;;0.75;73.63;98073.20;115355;1197;64339;-81
2021/10/09 03:59:05;;;;;;;13.10;7.00;;;;;;;0.77;74.05;98075.98;115321;1192;67223;-80
2021/10/09 04:01:36;;;;;;;14.40;6.40;;;;;;;0.84;73.94;98075.44;115276;1199;72505;-80
2021/10/09 04:04:07;;;;;;;13.20;8.00;;;;;;;0.88;74.02;98076.52;115332;1199;83810;-81
2021/10/09 04:06:38;;;;;;;12.00;6.90;;;;;;;0.98;74.16;98076.59;115490;1199;58278;-81
2021/10/09 04:09:10;;;;;;;15.40;7.80;;;;;;;1.04;74.32;98079.01;115390;1199;80276;-80
2021/10/09 04:11:41;;;;;;;11.40;7.10;;;;;;;1.16;74.40;98083.70;115444;1199;58452;-81
2021/10/09 04:14:12;;;;;;;13.00;7.40;;;;;;;1.19;74.02;98086.23;115546;1199;66348;-81
2021/10/09 04:16:43;;;;;;;13.10;7.90;;;;;;;1.11;73.86;98086.52;115629;1193;59591;-80
2021/10/09 04:19:14;;;;;;;12.80;7.80;;;;;;;1.10;73.80;98085.38;115341;1199;62598;-78
2021/10/09 04:21:45;;;;;;;12.30;7.70;;;;;;;1.06;73.68;98083.85;114950;1193;57419;-79
2021/10/09 04:24:18;;;;;;;12.20;7.00;;;;;;;0.87;73.57;98082.02;115126;1198;53417;-78
2021/10/09 04:26:49;;;;;;;14.20;6.90;;;;;;;0.72;73.98;98086.83;115325;1199;57355;-80
2021/10/09 04:29:21;;;;;;;15.40;6.50;;;;;;;0.70;74.09;98082.55;115460;1199;62319;-80
2021/10/09 04:31:54;;;;;;;12.90;7.20;;;;;;;0.75;74.39;98082.63;115342;1199;57343;-80
2021/10/09 04:34:27;;;;;;;10.70;7.10;;;;;;;0.79;74.35;98084.92;115505;1192;54991;-81
2021/10/09 04:36:58;;;;;;;16.40;8.50;;;;;;;0.78;74.64;98084.96;115548;1199;31646;-81
2021/10/09 04:39:29;;;;;;;16.60;8.20;;;;;;;0.89;74.57;98088.44;115608;1199;32490;-82
2021/10/09 04:42:02;;;;;;;14.20;8.20;;;;;;;1.03;74.87;98088.87;115558;1193;46160;-81
2021/10/09 04:44:32;;;;;;;16.00;7.70;;;;;;;1.02;74.31;98092.35;115574;1199;25250;-81
2021/10/09 04:47:03;;;;;;;13.00;7.80;;;;;;;1.02;74.60;98091.39;115594;1198;28689;-81
2021/10/09 04:49:34;;;;;;;15.50;7.40;;;;;;;1.08;74.71;98091.34;115502;1198;28524;-80
2021/10/09 04:52:06;;;;;;;15.40;8.20;;;;;;;1.06;74.15;98094.41;115629;1199;25465;-80
2021/10/09 04:54:36;;;;;;;12.00;7.20;;;;;;;0.94;74.07;98095.48;115544;1199;31795;-81
2021/10/09 04:57:07;;;;;;;11.90;7.10;;;;;;;0.89;74.36;98101.70;115400;1193;32852;-81
2021/10/09 04:59:38;;;;;;;14.20;7.60;;;;;;;0.81;74.51;98103.42;115597;1192;28391;-82
2021/10/09 05:02:09;;;;;;;13.50;7.10;;;;;;;0.81;74.97;98101.77;115646;1199;31568;-81
2021/10/09 05:04:40;;;;;;;15.60;8.50;;;;;;;0.81;75.23;98103.10;115639;1199;31060;-81
2021/10/09 05:07:11;;;;;;;15.00;8.40;;;;;;;0.97;75.35;98106.66;115659;1199;26802;-81
2021/10/09 05:09:43;;;;;;;18.90;10.00;;;;;;;1.26;75.63;98103.51;115624;1199;32796;-81
2021/10/09 05:12:13;;;;;;;19.20;9.00;;;;;;;1.67;75.68;98105.55;115424;1199;29664;-79
2021/10/09 05:14:45;;;;;;;16.80;8.20;;;;;;;2.08;75.20;98108.98;115502;1199;28284;-81
2021/10/09 05:17:16;;;;;;;13.70;7.80;;;;;;;2.60;74.80;98110.39;115599;1199;27101;-81
2021/10/09 05:19:47;;;;;;;14.90;8.80;;;;;;;3.13;74.37;98111.52;115584;1199;30587;-80
2021/10/09 05:22:18;;;;;;;12.60;7.60;;;;;;;3.67;73.80;98115.84;115578;1199;29310;-81
2021/10/09 05:24:53;;;;;;;13.80;8.40;;;;;;;4.26;73.33;98113.58;115579;1199;29142;-80
2021/10/09 05:27:26;;;;;;;14.20;8.50;;;;;;;4.90;72.42;98118.65;115571;1199;29392;-81
2021/10/09 05:30:02;;;;;;;12.50;7.90;;;;;;;5.25;71.42;98120.44;115586;1198;34081;-81
2021/10/09 05:32:35;;;;;;;13.70;7.20;;;;;;;5.86;70.91;98120.96;115494;1199;62406;-82
2021/10/09 05:35:06;;;;;;;17.40;9.40;;;;;;;6.54;70.38;98119.04;115158;1199;37911;-81
2021/10/09 05:37:37;;;;;;;12.40;8.30;;;;;;;7.13;69.34;98122.48;115537;1199;41686;-82
2021/10/09 05:40:08;;;;;;;;;;;;;;;7.59;68.14;98122.75;115654;1192;31095;-81
2021/10/09 05:42:37;;;;;;;;;;;;;;;7.81;67.13;98121.50;115671;1199;36414;-82
2021/10/09 05:45:08;;;;;;;13.60;8.20;;;;;;;8.09;66.58;98125.05;115494;1199;70947;-81
2021/10/09 05:47:39;;;;;;;19.50;12.50;;;;;;;8.48;66.07;98126.86;115569;1199;45480;-81
2021/10/09 05:50:12;;;;;;;19.40;11.20;;;;;;;8.52;64.50;98130.02;115633;1199;32318;-80
2021/10/09 05:52:45;;;;;;;15.30;10.00;;;;;;;8.42;64.21;98129.44;115652;1199;33052;-81
2021/10/09 05:55:19;;;;;;;13.70;10.10;;;;;;;8.59;63.52;98128.81;115599;1199;36585;-80
2021/10/09 05:57:58;;;;;;;16.50;10.10;;;;;;;8.63;62.81;98133.88;115588;1199;31005;-81
2021/10/09 06:43:20;;;;;;;21.20;13.80;;;;;;;11.07;54.30;98173.48;115622;1199;27757;-81
2021/10/09 06:46:07;;;;;;;19.10;13.00;;;;;;;11.17;53.53;98176.66;115585;1199;41458;-80
2021/10/09 07:00:02;;;;;;;20.10;13.40;;;;;;;11.64;52.67;98183.09;115586;1198;61202;-82
2021/10/09 07:02:37;;;;;;;19.80;13.30;;;;;;;11.95;52.59;98180.05;115559;1192;33070;-80
2021/10/09 07:05:10;;;;;;;22.20;13.50;;;;;;;12.10;51.66;98181.18;115166;1200;28754;-81
2021/10/09 07:07:43;;;;;;;19.80;13.30;;;;;;;11.96;51.29;98184.53;115495;1199;31415;-80
2021/10/09 07:10:14;;;;;;;19.20;12.90;;;;;;;12.03;51.26;98187.31;115233;1200;41188;-80
2021/10/09 07:12:46;;;;;;;19.10;13.00;;;;;;;12.16;51.49;98187.52;115179;1192;35511;-80
2021/10/09 07:15:18;;;;;;;21.50;13.50;;;;;;;12.42;51.66;98188.33;115430;1199;31783;-81
2021/10/09 07:17:49;;;;;;;20.60;13.10;;;;;;;12.86;52.03;98185.84;115519;1199;36992;-80
2021/10/09 07:20:20;;;;;;;20.40;13.70;;;;;;;13.33;51.48;98187.56;115522;1199;39236;-80
2021/10/09 07:22:51;;;;;;;20.10;12.80;;;;;;;13.46;51.09;98191.58;115534;1199;33906;-81
2021/10/09 07:25:23;;;;;;;20.20;12.60;;;;;;;13.73;51.27;98190.66;115221;1193;92549;-79
2021/10/09 07:27:54;;;;;;;23.70;13.10;;;;;;;13.87;50.62;98192.21;115501;1199;32355;-81
2021/10/09 07:30:25;;;;;;;18.80;12.30;;;;;;;13.63;49.97;98190.76;115305;1199;32421;-81
2021/10/09 07:32:56;;;;;;;19.60;11.80;;;;;;;13.48;50.72;98195.63;115158;1193;51270;-80
2021/10/09 07:35:27;;;;;;;18.00;10.90;;;;;;;13.45;50.78;98195.46;115506;1198;31120;-80
2021/10/09 07:37:58;;;;;;;20.20;11.20;;;;;;;13.55;50.62;98196.65;115580;1199;29104;-80
2021/10/09 07:40:29;;;;;;;18.70;11.10;;;;;;;13.12;49.29;98200.08;115563;1192;36124;-81
2021/10/09 07:43:00;;;;;;;18.90;10.30;;;;;;;12.92;50.25;98200.91;115604;1199;31916;-81
2021/10/09 07:45:31;;;;;;;17.40;10.20;;;;;;;13.05;50.44;98196.13;115592;1198;28401;-80
2021/10/09 07:48:03;;;;;;;17.30;10.60;;;;;;;13.39;50.77;98195.31;115589;1199;29300;-80
2021/10/09 07:50:35;;;;;;;15.60;9.60;;;;;;;13.73;50.71;98195.07;115597;1199;44775;-81
2021/10/09 07:53:06;;;;;;;16.20;9.90;;;;;;;14.13;50.61;98194.71;115611;1199;38387;-81
2021/10/09 07:55:37;;;;;;;16.30;10.30;;;;;;;14.31;49.89;98199.98;115602;1199;33770;-81
2021/10/09 07:58:08;;;;;;;16.90;9.60;;;;;;;14.34;49.50;98200.59;115519;1199;32082;-81
2021/10/09 08:00:39;;;;;;;19.80;10.30;;;;;;;14.37;49.11;98201.30;115543;1193;32522;-81
2021/10/09 08:03:10;;;;;;;16.00;9.60;;;;;;;14.23;48.84;98200.61;115350;1200;38100;-80
2021/10/09 08:05:41;;;;;;;17.40;10.10;;;;;;;14.17;48.95;98201.34;115601;1199;28181;-80
2021/10/09 08:08:11;;;;;;;16.50;9.50;;;;;;;13.81;48.34;98200.45;115534;1194;36418;-81
2021/10/09 08:10:42;;;;;;;14.60;8.90;;;;;;;13.72;48.81;98198.54;115479;1199;34120;-81
2021/10/09 08:13:13;;;;;;;18.80;9.10;;;;;;;13.66;48.85;98201.61;115268;1199;37139;-81
2021/10/09 08:15:45;;;;;;;14.40;9.40;;;;;;;13.54;48.55;98199.66;115468;1198;34111;-80
2021/10/09 08:18:16;;;;;;;15.80;9.40;;;;;;;13.35;48.50;98199.40;115555;1199;31958;-81
2021/10/09 08:20:50;;;;;;;16.50;9.10;;;;;;;13.24;48.99;98199.96;115477;1199;35516;-80
2021/10/09 08:23:24;;;;;;;16.00;9.10;;;;;;;13.25;48.72;98197.52;115645;1199;31405;-81
2021/10/09 08:26:11;;;;;;;18.40;9.90;;;;;;;13.10;48.81;98197.82;115948;1199;25288;-81
2021/10/09 08:37:21;;;;;;;17.90;10.80;;;;;;;12.59;49.33;98192.90;115914;1199;22421;-81
2021/10/09 08:39:52;;;;;;;18.50;9.80;;;;;;;12.19;49.11;98193.92;115947;1199;23853;-80
2021/10/09 08:42:24;;;;;;;16.50;11.10;;;;;;;11.78;49.08;98196.41;115991;1198;25126;-81
2021/10/09 08:44:55;;;;;;;16.80;9.90;;;;;;;11.44;50.18;98193.36;115944;1199;22439;-82
2021/10/09 08:47:26;;;;;;;16.90;9.40;;;;;;;11.40;50.02;98195.30;115911;1193;22492;-81
2021/10/09 08:49:56;;;;;;;17.00;9.60;;;;;;;11.24;50.27;98188.96;116012;1199;22455;-81
2021/10/09 08:52:29;;;;;;;18.00;10.10;;;;;;;11.11;50.35;98193.55;116010;1199;22468;-82
2021/10/09 08:55:18;;;;;;;18.60;9.50;;;;;;;11.12;51.06;98186.45;115963;1199;22461;-82
2021/10/09 08:57:50;;;;;;;14.80;8.70;;;;;;;10.97;50.85;98184.95;115979;1193;22566;-82
2021/10/09 09:00:36;;;;;;;17.30;9.70;;;;;;;10.51;50.02;98184.14;115984;1199;22428;-81
2021/10/09 09:03:10;;;;;;;16.50;8.00;;;;;;;10.19;51.13;98179.55;115933;1199;22457;-81
2021/10/09 09:05:53;;;;;;;11.30;7.10;;;;;;;10.01;50.40;98179.38;115948;1199;23096;-81
2021/10/09 09:08:34;;;;;;;17.20;7.10;;;;;;;9.72;50.11;98169.89;115864;1198;22489;-81
2021/10/09 09:25:33;;;;;;;13.10;7.10;;;;;;;9.87;50.67;98167.81;115983;1199;22899;-82
2021/10/09 09:31:22;;;;;;;14.60;7.40;;;;;;;9.58;48.34;98167.77;115960;1193;22454;-81
2021/10/09 09:34:06;;;;;;;12.80;6.00;;;;;;;9.59;49.38;98161.52;115916;1192;22412;-81
2021/10/09 09:37:01;;;;;;;11.10;6.20;;;;;;;9.63;48.89;98166.54;115929;1199;22469;-81
2021/10/09 09:39:41;;;;;;;11.40;6.20;;;;;;;9.66;49.44;98161.48;115961;1198;22427;-82
2021/10/09 09:42:23;;;;;;;10.90;6.90;;;;;;;9.75;49.19;98162.67;116003;1199;22451;-82
2021/10/09 09:44:59;;;;;;;15.40;7.60;;;;;;;9.57;47.90;98169.86;115989;1198;22463;-81
2021/10/09 09:47:41;;;;;;;14.00;7.70;;;;;;;9.39;48.47;98170.48;115946;1199;22439;-82
2021/10/09 09:50:13;;;;;;;12.40;6.20;;;;;;;9.48;48.98;98164.79;115277;1192;48664;-81
2021/10/09 09:52:46;;;;;;;11.90;6.90;;;;;;;9.56;48.56;98167.12;115204;1200;31173;-81
2021/10/09 09:55:19;;;;;;;11.00;7.00;;;;;;;9.60;49.01;98160.09;115391;1199;65465;-81
2021/10/09 09:57:52;;;;;;;16.70;7.60;;;;;;;9.71;49.03;98162.10;115458;1199;31423;-82
2021/10/09 10:00:23;;;;;;;13.80;7.80;;;;;;;9.81;49.29;98164.52;115523;1199;32309;-82
2021/10/09 10:02:55;;;;;;;11.60;7.10;;;;;;;9.75;48.05;98170.96;115652;1192;73707;-84
2021/10/09 10:05:28;;;;;;;13.30;6.90;;;;;;;9.48;48.03;98169.04;115354;1199;66638;-83
2021/10/09 10:08:00;;;;;;;12.20;7.50;;;;;;;9.44;48.62;98167.10;115340;1199;46064;-83
2021/10/09 10:10:31;;;;;;;14.80;7.80;;;;;;;9.55;48.99;98159.00;115382;1192;38266;-81
2021/10/09 10:13:02;;;;;;;11.40;7.60;;;;;;;9.74;49.49;98158.98;114711;1200;38944;-83
2021/10/09 10:15:33;;;;;;;11.90;6.90;;;;;;;9.94;49.37;98157.45;115403;1193;38302;-79
2021/10/09 10:18:04;;;;;;;13.10;7.10;;;;;;;10.02;49.18;98153.44;115514;1192;35367;-82
2021/10/09 10:20:50;;;;;;;14.50;7.10;;;;;;;10.05;48.69;98158.68;115552;1199;33942;-81
2021/10/09 10:23:36;;;;;;;14.10;7.80;;;;;;;10.02;48.37;98158.09;115520;1199;60101;-81
2021/10/09 10:26:30;;;;;;;11.70;6.90;;;;;;;9.94;48.36;98153.43;115473;1199;46192;-81
2021/10/09 10:29:24;;;;;;;11.20;6.30;;;;;;;9.93;48.36;98146.16;115469;1199;31200;-82
2021/10/09 10:32:17;;;;;;;12.70;7.00;;;;;;;10.03;48.97;98147.72;115461;1199;34351;-81
2021/10/09 10:34:49;;;;;;;15.70;7.40;;;;;;;9.96;48.19;98146.91;115277;1200;35395;-82
2021/10/09 10:37:37;;;;;;;14.50;7.20;;;;;;;9.89;47.49;98149.21;115387;1199;80215;-82
2021/10/09 10:40:09;;;;;;;12.30;6.90;;;;;;;9.79;48.18;98140.90;115404;1199;32432;-82
2021/10/09 10:42:39;;;;;;;13.90;7.50;;;;;;;9.89;48.19;98136.77;115469;1192;35397;-82
2021/10/09 10:45:15;;;;;;;11.30;6.70;;;;;;;9.90;48.00;98148.44;115473;1199;62345;-82
2021/10/09 10:48:00;;;;;;;14.70;7.90;;;;;;;9.77;47.08;98154.91;115397;1198;30374;-82
2021/10/09 10:54:12;;;;;;;13.00;7.00;;;;;;;9.77;48.26;98149.30;115494;1199;31469;-81
2021/10/09 10:57:13;;;;;;;16.90;7.80;;;;;;;9.76;48.09;98147.54;115573;1193;46764;-82
2021/10/09 10:59:46;;;;;;;12.00;6.80;;;;;;;9.78;48.39;98143.86;115611;1192;71274;-82
2021/10/09 11:02:19;;;;;;;11.40;6.50;;;;;;;9.81;48.16;98140.67;115578;1199;30792;-81
2021/10/09 11:04:52;;;;;;;12.50;7.10;;;;;;;9.83;47.86;98147.12;115554;1199;50115;-81
2021/10/09 11:07:27;;;;;;;13.60;7.40;;;;;;;9.80;48.04;98139.83;115341;1199;105890;-82
2021/10/09 11:10:06;;;;;;;13.30;7.50;;;;;;;9.88;48.09;98136.27;115450;1199;68601;-80
2021/10/09 11:12:39;;;;;;;14.30;7.10;;;;;;;9.92;47.59;98137.51;115316;1199;114385;-81
2021/10/09 11:15:17;;;;;;;11.50;6.60;;;;;;;9.85;47.08;98140.02;115503;1199;58115;-81
2021/10/09 11:17:57;;;;;;;15.50;7.50;;;;;;;9.75;48.31;98137.45;115534;1193;66986;-81
2021/10/09 11:20:32;;;;;;;14.80;7.80;;;;;;;9.93;49.49;98135.14;115279;1200;29585;-81
2021/10/09 11:23:07;;;;;;;13.70;7.80;;;;;;;10.11;50.03;98134.98;115591;1198;26997;-81
2021/10/09 11:25:41;;;;;;;16.00;8.30;;;;;;;10.23;50.01;98129.77;115546;1199;27548;-82
2021/10/09 11:28:22;;;;;;;13.20;6.90;;;;;;;10.35;50.28;98133.12;115547;1199;30262;-82
2021/10/09 11:30:54;;;;;;;12.60;7.90;;;;;;;10.23;49.53;98130.03;115559;1199;31611;-82
2021/10/09 11:33:27;;;;;;;12.70;8.00;;;;;;;10.27;49.92;98125.49;115540;1199;36638;-80
2021/10/09 11:36:02;;;;;;;15.00;8.00;;;;;;;10.25;49.15;98125.36;115546;1198;57506;-82
2021/10/09 11:38:34;;;;;;;15.60;8.00;;;;;;;10.23;49.65;98118.11;115497;1199;30773;-81
2021/10/09 11:41:17;;;;;;;14.90;7.80;;;;;;;10.18;49.61;98118.16;115460;1198;98578;-81
2021/10/09 11:43:50;;;;;;;14.70;7.90;;;;;;;10.25;50.62;98115.45;115528;1199;62474;-81
2021/10/09 11:55:20;;;;;;;15.20;7.90;;;;;;;10.74;50.26;98103.99;115564;1191;30350;-82
2021/10/09 11:57:52;;;;;;;16.00;7.90;;;;;;;10.76;50.54;98102.98;115577;1193;28808;-81
2021/10/09 12:00:43;;;;;;;12.40;7.20;;;;;;;10.72;50.13;98102.75;115555;1199;29223;-82
2021/10/09 12:03:35;;;;;;;13.80;8.10;;;;;;;10.66;49.85;98108.06;115628;1199;32080;-81
2021/10/09 12:06:11;;;;;;;15.40;8.20;;;;;;;10.38;49.23;98103.90;115427;1196;52779;-81
2021/10/09 12:08:57;;;;;;;13.10;7.50;;;;;;;10.44;50.55;98099.65;115504;1199;30411;-82
2021/10/09 12:11:30;;;;;;;12.30;7.10;;;;;;;10.56;49.97;98098.00;115508;1192;49827;-82
2021/10/09 12:14:02;;;;;;;13.70;7.80;;;;;;;10.48;48.89;98096.69;115521;1199;50799;-83
2021/10/09 12:16:36;;;;;;;13.40;7.90;;;;;;;10.26;48.93;98093.21;115413;1199;26891;-82
2021/10/09 12:19:09;;;;;;;12.60;7.20;;;;;;;10.24;50.25;98088.59;115282;1193;29288;-82
2021/10/09 12:21:42;;;;;;;10.70;6.80;;;;;;;10.46;50.75;98089.39;115405;1193;24166;-82
2021/10/09 12:24:22;;;;;;;15.90;7.10;;;;;;;10.69;50.99;98082.70;115476;1192;27031;-82
2021/10/09 12:27:12;;;;;;;12.80;7.10;;;;;;;10.80;50.24;98083.65;115513;1192;27815;-81
2021/10/09 12:29:59;;;;;;;9.50;6.20;;;;;;;10.87;50.49;98078.62;115569;1199;31787;-81
2021/10/09 12:32:32;;;;;;;11.00;6.50;;;;;;;10.98;50.00;98082.02;115637;1199;29290;-82
2021/10/09 12:35:10;;;;;;;13.30;6.60;;;;;;;10.90;49.53;98084.29;115504;1199;42639;-81
2021/10/09 12:37:55;;;;;;;10.60;6.20;;;;;;;10.86;49.25;98086.78;115567;1199;29654;-81
2021/10/09 12:40:28;;;;;;;11.00;6.50;;;;;;;10.87;49.34;98092.05;115562;1199;29626;-81
2021/10/09 12:43:00;;;;;;;12.90;6.60;;;;;;;10.81;48.43;98089.14;115535;1192;37731;-83
2021/10/09 12:45:32;;;;;;;11.50;6.70;;;;;;;10.80;48.92;98084.50;115549;1198;30625;-80
2021/10/09 12:48:04;;;;;;;13.30;6.90;;;;;;;10.82;48.52;98083.46;115513;1199;26432;-82
2021/10/09 12:50:38;;;;;;;11.20;6.90;;;;;;;10.76;48.42;98079.68;115483;1199;57604;-81
2021/10/09 12:53:10;;;;;;;12.00;6.30;;;;;;;10.79;48.61;98081.15;115459;1199;52601;-79
2021/10/09 12:55:41;;;;;;;11.80;6.70;;;;;;;10.78;48.43;98082.89;115511;1197;30636;-81
2021/10/09 12:58:12;;;;;;;13.20;7.10;;;;;;;10.79;48.53;98070.74;115497;1194;28506;-82
2021/10/09 13:00:43;;;;;;;13.00;6.50;;;;;;;10.82;48.30;98077.79;115602;1199;46128;-81
2021/10/09 13:03:14;;;;;;;11.70;6.10;;;;;;;10.77;47.80;98080.00;115569;1199;29646;-81
2021/10/09 13:05:44;;;;;;;12.00;6.90;;;;;;;10.63;47.28;98080.54;115576;1199;35949;-81
2021/10/09 13:08:15;;;;;;;11.50;6.20;;;;;;;10.64;47.84;98076.30;115426;1199;29470;-81
2021/10/09 13:10:49;;;;;;;11.20;6.40;;;;;;;10.68;47.96;98077.17;115600;1199;33092;-82
2021/10/09 13:13:20;;;;;;;13.90;6.70;;;;;;;10.78;48.74;98075.30;115525;1191;30156;-81
2021/10/09 13:15:51;;;;;;;13.70;6.70;;;;;;;10.91;48.89;98070.08;115495;1198;26564;-80
2021/10/09 13:18:21;;;;;;;11.20;6.40;;;;;;;10.98;48.47;98069.60;115515;1199;30153;-81
2021/10/09 13:20:55;;;;;;;12.90;7.10;;;;;;;11.01;48.70;98073.52;115472;1192;31862;-81
2021/10/09 13:23:31;;;;;;;10.60;6.50;;;;;;;11.04;47.98;98068.77;115335;1193;28620;-81
2021/10/09 13:26:02;;;;;;;12.00;6.90;;;;;;;10.91;47.49;98066.95;115488;1199;33876;-82
2021/10/09 13:28:36;;;;;;;11.50;5.80;;;;;;;10.81;47.44;98062.50;115435;1199;26602;-82
2021/10/09 13:31:08;;;;;;;12.40;6.60;;;;;;;10.81;47.22;98060.06;115556;1199;27592;-81
2021/10/09 13:33:38;;;;;;;9.00;5.40;;;;;;;10.78;46.96;98057.64;115567;1199;28132;-81
2021/10/09 13:36:09;;;;;;;16.90;6.80;;;;;;;10.76;46.82;98057.92;115528;1184;34502;-81